Warminster, United Kingdom
Current Conditions -  °F | °C
As of 4:50 AM on Friday 31 Oct 2014 (Local Time) from EGDM Reporting Station
Haze Haze  
Wind Chill: 57°   Ceiling: 200
Heat Index: 57°   Visibility: 1.6mi
Dew Point: 57°   Wind: 6mph
Humidity: 100%   Direction: 150°SSE
Pressure: 30.03"   Gusts: NA
Location:  51.2°N, 2.18°W
Report Text: EGDM 310450Z AUTO 15005KT 2700 BR OVC002/// 14/14 Q1017
Loading
Personal Weather Stations






























Interactive Weather Map
Tropical Storm Tracking
New forecast layout! Learn more

10-Day Weather Forecast

Advertisements
Track Severe Weather on mobile